Time;durP1;ratioP1;P1;durP2;ratioP2;P2;SDS_P1;SDS_P2;PMS_P1;PMS_P2;Temp;Humidity;BMP_temperature;BMP_pressure;BME280_temperature;BME280_humidity;BME280_pressure;Samples;Min_cycle;Max_cycle;Signal;HPM_P1;HPM_P2
2022/04/29 00:00:25;;;;;;;3.40;3.10;;;;;;;14.62;50.01;101373.38;5019504;28;20448;-68
2022/04/29 00:02:51;;;;;;;3.40;3.10;;;;;;;14.59;49.96;101374.69;5028976;28;20417;-68
2022/04/29 00:05:17;;;;;;;3.65;3.35;;;;;;;14.56;50.67;101377.91;5027614;28;20468;-69
2022/04/29 00:07:43;;;;;;;4.43;3.53;;;;;;;14.53;51.10;101376.50;5014381;28;20495;-68
2022/04/29 00:10:13;;;;;;;3.53;3.23;;;;;;;14.49;51.01;101372.63;5019112;28;20423;-69
2022/04/29 00:12:43;;;;;;;3.97;3.65;;;;;;;14.48;51.33;101373.72;5017514;28;20416;-68
2022/04/29 00:15:11;;;;;;;4.25;3.55;;;;;;;14.45;51.45;101366.03;5015240;28;20467;-68
2022/04/29 00:17:37;;;;;;;5.78;4.10;;;;;;;14.45;51.62;101370.66;5019035;28;20414;-68
2022/04/29 00:20:02;;;;;;;4.30;3.87;;;;;;;14.43;51.75;101372.78;5023209;28;20931;-69
2022/04/29 00:22:28;;;;;;;4.80;3.78;;;;;;;14.38;52.03;101381.72;5014937;28;20765;-68
2022/04/29 00:24:53;;;;;;;4.63;3.50;;;;;;;14.35;51.84;101371.31;5017089;28;20475;-68
2022/04/29 00:27:18;;;;;;;5.35;3.88;;;;;;;14.33;51.77;101375.31;5020882;28;20409;-68
2022/04/29 00:29:43;;;;;;;4.20;3.40;;;;;;;14.31;51.88;101369.28;5017457;28;20507;-69
2022/04/29 00:32:09;;;;;;;4.03;3.73;;;;;;;14.31;52.22;101364.66;5014715;28;20404;-68
2022/04/29 00:34:34;;;;;;;4.63;3.63;;;;;;;14.26;52.55;101372.75;5014576;28;20404;-68
2022/04/29 00:36:59;;;;;;;4.10;3.70;;;;;;;14.22;52.22;101368.88;5022184;28;20951;-69
2022/04/29 00:39:25;;;;;;;5.10;3.97;;;;;;;14.22;52.73;101359.88;5018461;28;20435;-68
2022/04/29 00:41:50;;;;;;;4.10;3.78;;;;;;;14.21;52.40;101356.31;5023014;28;20910;-68
2022/04/29 00:44:16;;;;;;;4.47;4.05;;;;;;;14.22;52.56;101340.78;5003007;28;20529;-68
2022/04/29 00:46:44;;;;;;;4.47;4.07;;;;;;;14.20;52.63;101357.38;5013423;28;20397;-68
2022/04/29 00:49:12;;;;;;;3.90;3.70;;;;;;;14.18;52.53;101355.97;5014242;28;20578;-69
2022/04/29 00:51:39;;;;;;;5.60;3.92;;;;;;;14.17;52.17;101355.16;5014574;28;20393;-69
2022/04/29 00:54:07;;;;;;;4.72;4.13;;;;;;;14.10;52.38;101346.31;5024142;28;20399;-68
2022/04/29 00:56:38;;;;;;;4.22;3.85;;;;;;;14.06;52.84;101355.25;5018714;28;20890;-68
2022/04/29 00:59:15;;;;;;;4.95;4.40;;;;;;;14.04;52.58;101350.03;5019511;28;20438;-68
2022/04/29 01:01:43;;;;;;;5.25;4.28;;;;;;;14.04;52.45;101347.28;5029701;28;20740;-69
2022/04/29 01:04:12;;;;;;;4.70;4.30;;;;;;;14.05;52.57;101351.69;5012492;28;20896;-69
2022/04/29 01:06:37;;;;;;;4.15;3.85;;;;;;;14.01;53.29;101351.34;5023245;28;20426;-69
2022/04/29 01:09:03;;;;;;;4.57;4.17;;;;;;;13.98;53.53;101357.28;5024915;28;20409;-68
2022/04/29 01:11:28;;;;;;;6.27;4.43;;;;;;;13.94;53.32;101355.28;5014529;28;20764;-68
2022/04/29 01:13:54;;;;;;;5.17;4.77;;;;;;;13.91;53.68;101353.88;5005893;28;20422;-68
2022/04/29 01:16:20;;;;;;;5.20;4.70;;;;;;;13.87;53.82;101355.44;5013991;28;20547;-69
2022/04/29 01:18:49;;;;;;;4.43;4.03;;;;;;;13.87;53.74;101358.16;5022617;28;20408;-69
2022/04/29 01:21:14;;;;;;;6.78;4.57;;;;;;;13.85;54.05;101356.75;5024910;28;20497;-68
2022/04/29 01:23:41;;;;;;;5.10;4.60;;;;;;;13.81;54.26;101352.88;5022268;28;20502;-68
2022/04/29 01:26:06;;;;;;;4.57;4.18;;;;;;;13.81;54.27;101356.44;4996656;28;20780;-68
2022/04/29 01:28:33;;;;;;;7.77;5.53;;;;;;;13.78;54.24;101347.91;5011966;28;20422;-68
2022/04/29 01:31:00;;;;;;;5.17;4.73;;;;;;;13.77;54.16;101346.25;5019361;28;20417;-69
2022/04/29 01:33:28;;;;;;;4.82;4.43;;;;;;;13.77;54.18;101343.53;5020787;28;20427;-68
2022/04/29 01:35:54;;;;;;;4.40;4.10;;;;;;;13.75;54.22;101343.78;5004086;28;20435;-68
2022/04/29 01:38:19;;;;;;;4.68;4.38;;;;;;;13.75;54.56;101342.94;5016360;28;20412;-68
2022/04/29 01:40:45;;;;;;;6.13;4.67;;;;;;;13.71;54.19;101345.34;5028029;28;20411;-68
2022/04/29 01:43:10;;;;;;;4.32;4.03;;;;;;;13.69;54.25;101333.03;5019018;28;20832;-68
2022/04/29 01:45:35;;;;;;;4.70;4.30;;;;;;;13.66;54.37;101331.63;5001577;28;20407;-68
2022/04/29 01:48:01;;;;;;;5.40;4.90;;;;;;;13.66;54.32;101338.97;5013975;28;20393;-69
2022/04/29 01:53:53;;;;;;;5.00;4.60;;;;;;;13.58;54.77;101342.91;5010785;28;20555;-68
2022/04/29 01:56:19;;;;;;;5.45;4.97;;;;;;;13.57;54.60;101340.44;5013172;28;20494;-68
2022/04/29 01:58:44;;;;;;;5.30;4.80;;;;;;;13.56;54.67;101338.78;5020086;28;20509;-68
2022/04/29 02:01:10;;;;;;;5.10;4.70;;;;;;;13.54;54.84;101341.72;5019918;28;20487;-68
2022/04/29 02:03:36;;;;;;;5.05;4.55;;;;;;;13.50;54.70;101335.94;5030503;28;20453;-68
2022/04/29 02:06:01;;;;;;;6.30;4.63;;;;;;;13.47;54.88;101330.97;5024980;28;20717;-69
2022/04/29 02:08:26;;;;;;;5.80;4.90;;;;;;;13.46;54.58;101334.81;5017107;28;20419;-68
2022/04/29 02:10:52;;;;;;;5.50;5.00;;;;;;;13.42;54.91;101332.78;5019427;28;20411;-68
2022/04/29 02:13:17;;;;;;;5.50;5.00;;;;;;;13.34;55.02;101325.00;5012712;28;20413;-68
2022/04/29 02:15:42;;;;;;;5.27;4.80;;;;;;;13.30;55.04;101327.41;5019239;28;20461;-68
2022/04/29 02:18:08;;;;;;;5.20;4.70;;;;;;;13.28;55.65;101325.97;5025618;28;20403;-68
2022/04/29 02:20:33;;;;;;;5.13;4.83;;;;;;;13.29;55.54;101312.13;5019779;28;20515;-69
2022/04/29 02:22:58;;;;;;;5.70;5.10;;;;;;;13.29;55.79;101320.28;5038858;28;20415;-68
2022/04/29 02:25:24;;;;;;;6.18;5.00;;;;;;;13.23;55.63;101320.44;5022732;28;20417;-69
2022/04/29 02:27:49;;;;;;;6.03;4.73;;;;;;;13.18;55.68;101312.97;5026808;28;20924;-68
2022/04/29 02:30:14;;;;;;;5.33;4.83;;;;;;;13.20;55.67;101310.03;5012089;28;20429;-68
2022/04/29 02:32:41;;;;;;;6.95;5.38;;;;;;;13.21;55.70;101311.66;5011562;28;20405;-69
2022/04/29 02:35:07;;;;;;;5.67;5.20;;;;;;;13.15;55.59;101320.78;5021599;28;20507;-68
2022/04/29 02:37:32;;;;;;;5.10;4.70;;;;;;;13.16;55.34;101317.00;5016464;28;20480;-68
2022/04/29 02:39:57;;;;;;;6.20;4.90;;;;;;;13.13;55.54;101322.94;5022372;28;20422;-68
2022/04/29 02:42:23;;;;;;;7.03;4.87;;;;;;;13.09;55.78;101322.59;5016765;28;20419;-68
2022/04/29 02:44:48;;;;;;;7.18;5.10;;;;;;;13.09;55.69;101316.31;5017924;28;20463;-68
2022/04/29 02:47:13;;;;;;;5.90;5.30;;;;;;;13.02;55.38;101317.25;5012170;28;20396;-68
2022/04/29 02:49:41;;;;;;;7.73;5.10;;;;;;;12.96;55.60;101320.94;5015200;28;20436;-68
2022/04/29 02:52:08;;;;;;;5.13;4.68;;;;;;;12.94;55.71;101309.44;5012469;28;20409;-68
2022/04/29 02:54:33;;;;;;;5.47;5.00;;;;;;;12.84;55.91;101309.22;5016200;28;20498;-68
2022/04/29 02:56:58;;;;;;;5.80;5.17;;;;;;;12.85;56.52;101312.78;5013582;28;20477;-68
2022/04/29 02:59:24;;;;;;;5.00;4.53;;;;;;;12.86;56.11;101320.72;4995265;28;20417;-68
2022/04/29 03:01:49;;;;;;;5.17;4.77;;;;;;;12.85;56.04;101310.91;5025496;28;20437;-69
2022/04/29 03:04:15;;;;;;;5.47;4.97;;;;;;;12.79;56.57;101313.75;5017567;28;20411;-69
2022/04/29 03:06:40;;;;;;;6.53;5.20;;;;;;;12.79;56.68;101313.75;5011463;28;20417;-68
2022/04/29 03:09:06;;;;;;;5.72;5.25;;;;;;;12.81;56.70;101300.75;5020812;28;20427;-69
2022/04/29 03:11:31;;;;;;;6.13;4.77;;;;;;;12.81;56.78;101306.19;5023594;28;20488;-68
2022/04/29 03:13:57;;;;;;;5.00;4.60;;;;;;;12.78;57.01;101304.75;5025501;28;20465;-68
2022/04/29 03:16:22;;;;;;;6.27;4.80;;;;;;;12.78;56.89;101303.91;5024138;28;20411;-68
2022/04/29 03:18:48;;;;;;;5.20;4.78;;;;;;;12.78;56.80;101298.47;5011943;28;20439;-69
2022/04/29 03:21:13;;;;;;;5.53;4.97;;;;;;;12.78;57.07;101298.47;5024680;28;20416;-68
2022/04/29 03:23:39;;;;;;;5.00;4.70;;;;;;;12.77;56.97;101303.13;5016223;28;20762;-68
2022/04/29 03:26:05;;;;;;;5.57;5.17;;;;;;;12.75;56.74;101312.56;5011887;28;20428;-68
2022/04/29 03:28:30;;;;;;;5.27;4.77;;;;;;;12.76;56.87;101316.94;5021600;28;20420;-69
2022/04/29 03:30:56;;;;;;;6.37;5.77;;;;;;;12.67;57.54;101308.34;5020941;28;20401;-69
2022/04/29 03:33:21;;;;;;;6.63;5.47;;;;;;;12.65;57.48;101302.28;5011678;28;20513;-69
2022/04/29 03:35:49;;;;;;;6.80;6.23;;;;;;;12.61;57.51;101303.00;5019601;28;20948;-68
2022/04/29 03:38:15;;;;;;;6.07;5.47;;;;;;;12.64;57.43;101302.53;5015602;28;20469;-69
2022/04/29 03:40:40;;;;;;;9.60;5.97;;;;;;;12.65;57.30;101306.88;5026495;28;20835;-69
2022/04/29 03:43:06;;;;;;;6.15;5.47;;;;;;;12.65;57.32;101305.00;5012587;28;20863;-69
2022/04/29 03:45:32;;;;;;;5.87;5.47;;;;;;;12.66;57.08;101312.09;5013031;28;20416;-68
2022/04/29 03:47:58;;;;;;;5.93;5.33;;;;;;;12.67;57.28;101304.78;5011601;28;20760;-69
2022/04/29 03:50:25;;;;;;;5.80;5.30;;;;;;;12.61;57.39;101303.84;5028638;28;20399;-69
2022/04/29 03:52:56;;;;;;;7.80;5.85;;;;;;;12.57;57.48;101308.09;5013271;28;20895;-69
2022/04/29 03:55:23;;;;;;;7.03;5.65;;;;;;;12.59;57.46;101307.84;5011039;28;20486;-69
2022/04/29 03:57:49;;;;;;;7.78;6.07;;;;;;;12.59;57.62;101307.84;5011206;28;20401;-68
2022/04/29 04:00:16;;;;;;;7.27;6.47;;;;;;;12.54;57.81;101314.00;5009655;28;20420;-68
2022/04/29 04:02:42;;;;;;;6.07;5.47;;;;;;;12.53;58.12;101311.50;5001754;28;20463;-68
2022/04/29 04:05:10;;;;;;;6.03;5.43;;;;;;;12.49;58.32;101320.16;5017273;28;20892;-68
2022/04/29 04:07:36;;;;;;;6.33;5.73;;;;;;;12.49;58.55;101311.16;5017863;28;20396;-68
2022/04/29 04:10:02;;;;;;;7.20;6.00;;;;;;;12.49;58.73;101311.16;5003723;28;20934;-68
2022/04/29 04:12:37;;;;;;;7.28;6.20;;;;;;;12.46;58.72;101317.06;5014841;28;20424;-68
2022/04/29 04:15:03;;;;;;;6.43;5.93;;;;;;;12.46;58.96;101319.78;5021064;28;20400;-68
2022/04/29 04:17:28;;;;;;;6.60;6.00;;;;;;;12.46;59.05;101319.78;5002148;28;20795;-68
2022/04/29 04:19:53;;;;;;;8.23;6.33;;;;;;;12.40;58.79;101312.59;5014921;28;20423;-68
2022/04/29 04:22:18;;;;;;;8.70;6.57;;;;;;;12.37;58.59;101311.19;5010177;28;20436;-68
2022/04/29 04:24:44;;;;;;;6.87;6.27;;;;;;;12.26;59.13;101309.28;5000616;28;20412;-68
2022/04/29 04:27:09;;;;;;;8.02;6.15;;;;;;;12.25;58.80;101307.59;5010947;28;20861;-68
2022/04/29 04:29:35;;;;;;;7.23;6.40;;;;;;;12.29;59.24;101306.06;5026490;28;20436;-68
2022/04/29 04:32:00;;;;;;;6.55;5.95;;;;;;;12.36;58.95;101308.69;4987448;28;20414;-68
2022/04/29 04:37:09;;;;;;;7.32;6.60;;;;;;;12.31;58.43;101320.28;5008507;28;20435;-68
2022/04/29 04:39:34;;;;;;;7.43;6.80;;;;;;;12.32;58.15;101323.78;5013103;28;20452;-68
2022/04/29 04:42:00;;;;;;;6.73;6.23;;;;;;;12.30;58.12;101324.03;5013857;28;20413;-68
2022/04/29 04:44:26;;;;;;;6.83;6.00;;;;;;;12.30;58.20;101323.22;5016694;28;20920;-68
2022/04/29 04:46:51;;;;;;;8.23;6.13;;;;;;;12.34;58.01;101330.69;5009185;28;20995;-68
2022/04/29 04:49:16;;;;;;;6.28;5.75;;;;;;;12.35;57.55;101332.31;5011981;28;20417;-68
2022/04/29 04:51:41;;;;;;;8.43;6.37;;;;;;;12.35;57.38;101328.75;5001608;28;20908;-68
2022/04/29 04:54:07;;;;;;;7.27;5.93;;;;;;;12.34;57.90;101333.41;5009390;28;20508;-69
2022/04/29 04:56:32;;;;;;;6.43;5.68;;;;;;;12.34;57.47;101329.84;5010381;28;20880;-68
2022/04/29 04:58:57;;;;;;;7.03;6.53;;;;;;;12.34;57.58;101341.53;5009790;28;20454;-69
2022/04/29 05:01:23;;;;;;;7.20;6.60;;;;;;;12.32;57.45;101332.78;5018226;28;20731;-68
2022/04/29 05:03:48;;;;;;;6.93;6.30;;;;;;;12.29;57.76;101333.25;5025037;28;20432;-69
2022/04/29 05:06:14;;;;;;;6.47;5.97;;;;;;;12.29;57.88;101343.28;5018577;28;20473;-68
2022/04/29 05:08:39;;;;;;;6.43;5.93;;;;;;;12.31;57.78;101343.91;5028554;28;20411;-68
2022/04/29 05:11:04;;;;;;;6.67;6.07;;;;;;;12.32;57.89;101350.97;5016839;28;20462;-68
2022/04/29 05:13:29;;;;;;;6.37;5.87;;;;;;;12.33;57.81;101350.75;5018291;28;20415;-69
2022/04/29 05:15:55;;;;;;;7.43;6.30;;;;;;;12.33;57.64;101355.34;5025967;28;20415;-69
2022/04/29 05:18:21;;;;;;;7.30;6.40;;;;;;;12.31;58.23;101349.34;5024049;28;20424;-68
2022/04/29 05:20:46;;;;;;;6.93;6.28;;;;;;;12.35;57.93;101355.94;5013902;28;20417;-68
2022/04/29 05:23:11;;;;;;;8.10;7.13;;;;;;;12.36;58.11;101353.00;5010365;28;21200;-68
2022/04/29 05:25:36;;;;;;;7.17;5.97;;;;;;;12.18;58.59;101341.41;5011267;28;20779;-68
2022/04/29 05:28:02;;;;;;;9.30;7.53;;;;;;;12.13;58.81;101347.53;5013784;28;20401;-69
2022/04/29 05:30:28;;;;;;;10.27;8.63;;;;;;;12.12;58.95;101348.59;5013717;28;20397;-69
2022/04/29 05:32:53;;;;;;;10.50;8.57;;;;;;;12.08;58.87;101360.16;5026549;28;20399;-69
2022/04/29 05:35:19;;;;;;;8.00;6.80;;;;;;;12.02;59.05;101358.38;5018752;28;20397;-68
2022/04/29 05:37:45;;;;;;;7.35;6.65;;;;;;;12.10;59.11;101356.16;5011289;28;20495;-69
2022/04/29 05:42:55;;;;;;;7.10;6.47;;;;;;;12.26;58.70;101362.78;5013095;28;20408;-69
2022/04/29 05:45:20;;;;;;;8.87;7.00;;;;;;;12.32;58.25;101368.13;5001690;28;20397;-69
2022/04/29 05:47:46;;;;;;;7.95;7.15;;;;;;;12.28;58.31;101360.69;5025226;28;20409;-69
2022/04/29 05:50:11;;;;;;;7.70;7.00;;;;;;;12.29;58.44;101360.44;5020120;28;20412;-70
2022/04/29 05:52:36;;;;;;;10.00;6.97;;;;;;;12.33;58.62;101364.34;5012088;28;20408;-70
2022/04/29 05:55:02;;;;;;;8.38;7.57;;;;;;;12.35;58.74;101383.97;5012962;28;20884;-70
2022/04/29 05:57:27;;;;;;;8.37;6.57;;;;;;;12.39;58.60;101379.72;5012143;28;20895;-69
2022/04/29 05:59:52;;;;;;;7.07;6.38;;;;;;;12.43;58.60;101374.63;5027815;28;20471;-70
2022/04/29 06:02:17;;;;;;;9.10;7.30;;;;;;;12.43;58.68;101375.47;5011880;28;20431;-70
2022/04/29 06:04:43;;;;;;;6.87;6.27;;;;;;;12.40;58.72;101375.09;5017966;28;20406;-70
2022/04/29 06:07:08;;;;;;;8.65;6.85;;;;;;;12.46;58.81;101377.72;5009483;28;20569;-70
2022/04/29 06:09:33;;;;;;;6.87;6.10;;;;;;;12.53;58.67;101371.34;5016076;28;20404;-70
2022/04/29 06:11:58;;;;;;;8.10;6.67;;;;;;;12.58;58.57;101371.47;5012904;28;20409;-69
2022/04/29 06:14:24;;;;;;;6.90;6.07;;;;;;;12.64;58.74;101365.91;5022707;28;20398;-69
2022/04/29 06:16:49;;;;;;;6.70;6.10;;;;;;;12.70;58.69;101359.53;5016735;28;20396;-69
2022/04/29 06:19:14;;;;;;;7.57;6.50;;;;;;;12.71;58.80;101361.16;5012600;28;20465;-69
2022/04/29 06:21:40;;;;;;;9.63;7.03;;;;;;;12.73;58.10;101363.66;5018637;28;20899;-69
2022/04/29 06:24:07;;;;;;;9.52;7.05;;;;;;;12.67;58.30;101361.88;5012762;28;20397;-69
2022/04/29 06:26:32;;;;;;;6.97;6.28;;;;;;;12.63;58.11;101356.09;5012888;28;20796;-69
2022/04/29 06:28:58;;;;;;;7.30;6.70;;;;;;;12.63;58.25;101360.69;5012396;28;20409;-69
2022/04/29 06:31:23;;;;;;;8.20;7.35;;;;;;;12.65;58.56;101356.66;5012548;28;20401;-69
2022/04/29 06:33:48;;;;;;;8.50;7.50;;;;;;;12.80;58.25;101357.03;5006951;28;20441;-70
2022/04/29 06:36:14;;;;;;;9.10;6.87;;;;;;;12.90;57.95;101351.81;5014031;28;20444;-69
2022/04/29 06:38:39;;;;;;;11.47;6.93;;;;;;;12.97;57.55;101351.69;5014666;28;20400;-69
2022/04/29 06:41:04;;;;;;;7.37;6.67;;;;;;;13.06;57.26;101355.69;5008877;28;20462;-70
2022/04/29 06:43:30;;;;;;;8.82;6.85;;;;;;;13.11;57.35;101355.00;5016586;28;20892;-68
2022/04/29 06:45:56;;;;;;;14.30;7.45;;;;;;;13.11;57.02;101355.81;5011008;28;20393;-69
2022/04/29 06:48:21;;;;;;;9.27;7.07;;;;;;;13.20;56.69;101348.97;5011026;28;20489;-69
2022/04/29 06:50:46;;;;;;;8.50;7.00;;;;;;;13.23;56.72;101353.09;5011387;28;20433;-69
2022/04/29 06:53:12;;;;;;;9.40;7.70;;;;;;;13.22;56.76;101352.25;5011285;28;20426;-69
2022/04/29 06:55:38;;;;;;;15.20;9.13;;;;;;;13.23;56.61;101359.38;5012033;28;20408;-69
2022/04/29 06:58:03;;;;;;;7.25;6.55;;;;;;;13.22;56.44;101359.59;5012243;28;20428;-69
2022/04/29 07:00:29;;;;;;;9.53;6.47;;;;;;;13.13;56.69;101345.53;4993216;28;20463;-69
2022/04/29 07:02:56;;;;;;;9.30;6.97;;;;;;;13.12;56.90;101353.94;5011931;28;20400;-69
2022/04/29 07:05:21;;;;;;;7.30;6.60;;;;;;;13.17;56.58;101349.41;5012092;28;20408;-69
2022/04/29 07:07:49;;;;;;;7.22;6.53;;;;;;;13.20;56.69;101351.69;5011707;28;20884;-69
2022/04/29 07:10:15;;;;;;;10.43;6.93;;;;;;;13.25;56.58;101346.34;5012187;28;20428;-69
2022/04/29 07:12:42;;;;;;;9.80;6.75;;;;;;;13.32;55.97;101346.19;5012167;28;20412;-69
2022/04/29 07:15:08;;;;;;;8.13;6.72;;;;;;;13.33;56.29;101347.88;5011290;28;20381;-69
2022/04/29 07:17:34;;;;;;;10.77;7.53;;;;;;;13.30;56.11;101345.63;5012054;28;20818;-69
2022/04/29 07:19:59;;;;;;;7.73;7.00;;;;;;;13.33;56.18;101336.97;5011675;28;20454;-69
2022/04/29 07:22:25;;;;;;;7.60;6.90;;;;;;;13.40;56.11;101337.66;5001637;28;20400;-69
2022/04/29 07:24:50;;;;;;;7.90;7.10;;;;;;;13.44;56.24;101336.91;5011821;28;20788;-69
2022/04/29 07:27:16;;;;;;;7.37;6.67;;;;;;;13.49;56.10;101328.88;5011690;28;20476;-69
2022/04/29 07:29:42;;;;;;;9.65;7.22;;;;;;;13.58;56.17;101344.78;5010147;28;20416;-69
2022/04/29 07:32:07;;;;;;;7.90;7.10;;;;;;;13.60;55.55;101345.41;5011705;28;20439;-69
2022/04/29 07:43:01;;;;;;;7.30;6.60;;;;;;;14.03;54.48;101341.00;5010965;28;20531;-69
2022/04/29 07:45:26;;;;;;;8.70;7.03;;;;;;;14.20;54.31;101330.13;5011953;28;20479;-69
2022/04/29 07:47:52;;;;;;;8.20;6.63;;;;;;;14.35;54.14;101333.16;5005857;28;20395;-70
2022/04/29 07:50:17;;;;;;;7.30;6.67;;;;;;;14.51;53.80;101331.47;5014531;28;20401;-69
2022/04/29 07:52:42;;;;;;;8.07;6.00;;;;;;;14.66;53.71;101336.31;5011523;28;20454;-70
2022/04/29 07:55:08;;;;;;;7.47;6.13;;;;;;;14.78;52.73;101328.88;5011326;28;20444;-71
2022/04/29 07:57:34;;;;;;;7.30;6.07;;;;;;;14.90;52.55;101324.94;4998815;28;20399;-70
2022/04/29 07:59:59;;;;;;;8.23;5.90;;;;;;;15.06;52.62;101328.69;5011633;28;20413;-70
2022/04/29 08:02:24;;;;;;;7.13;6.40;;;;;;;15.19;52.20;101330.22;5010304;28;20744;-71
2022/04/29 08:04:50;;;;;;;7.53;6.83;;;;;;;15.26;51.52;101328.13;5005785;28;20409;-70
2022/04/29 08:07:15;;;;;;;10.23;7.10;;;;;;;15.30;51.72;101332.84;5010128;28;20396;-70
2022/04/29 08:09:40;;;;;;;13.17;6.93;;;;;;;15.34;51.50;101336.72;4993400;28;20939;-70
2022/04/29 08:12:06;;;;;;;9.27;7.20;;;;;;;15.42;51.14;101335.41;4994924;28;20772;-71
2022/04/29 08:14:31;;;;;;;7.82;6.35;;;;;;;15.46;51.38;101334.66;5015480;28;20746;-71
2022/04/29 08:16:57;;;;;;;7.10;6.00;;;;;;;15.49;51.20;101331.44;5023842;28;20402;-70
2022/04/29 08:19:23;;;;;;;7.47;6.63;;;;;;;15.49;51.24;101322.41;5016273;28;20548;-70
2022/04/29 08:21:48;;;;;;;7.97;6.72;;;;;;;15.51;50.74;101328.47;5015029;28;20397;-70
2022/04/29 08:24:14;;;;;;;10.13;6.97;;;;;;;15.52;50.56;101320.00;5018793;28;20434;-70
2022/04/29 08:26:40;;;;;;;11.55;6.85;;;;;;;15.56;50.43;101320.31;5016108;28;20936;-70
2022/04/29 08:29:05;;;;;;;6.82;6.30;;;;;;;15.62;50.59;101321.19;5016676;28;20423;-71
2022/04/29 08:31:30;;;;;;;8.63;5.90;;;;;;;15.68;50.99;101323.72;5014872;28;20488;-70
2022/04/29 08:33:56;;;;;;;7.80;6.23;;;;;;;15.73;50.83;101323.78;5023064;28;20460;-70
2022/04/29 08:36:21;;;;;;;8.15;6.00;;;;;;;15.72;50.65;101324.84;5019257;28;20901;-70
2022/04/29 08:38:47;;;;;;;8.10;5.80;;;;;;;15.72;50.50;101319.41;5014587;28;20883;-70
2022/04/29 08:41:12;;;;;;;9.13;6.13;;;;;;;15.72;50.84;101321.28;5013776;28;20539;-71
2022/04/29 08:43:38;;;;;;;10.13;6.60;;;;;;;15.79;50.80;101324.66;5014244;28;20872;-70
2022/04/29 08:46:06;;;;;;;7.60;6.47;;;;;;;15.90;50.92;101312.75;5014682;28;20407;-71
2022/04/29 08:48:33;;;;;;;8.52;6.13;;;;;;;16.01;50.26;101318.03;5016769;28;20431;-70
2022/04/29 08:50:59;;;;;;;10.77;6.35;;;;;;;16.11;50.00;101320.03;5027432;28;20472;-71
2022/04/29 08:53:24;;;;;;;14.95;6.00;;;;;;;16.23;50.32;101304.28;5014324;28;20749;-70
2022/04/29 08:58:36;;;;;;;9.40;5.55;;;;;;;16.56;50.43;101312.19;5012128;28;20423;-71
2022/04/29 09:01:16;;;;;;;7.47;5.45;;;;;;;16.80;49.96;101307.13;5013555;28;20424;-71
2022/04/29 09:03:43;;;;;;;9.10;6.28;;;;;;;16.99;49.07;101313.00;5021727;28;20431;-71
2022/04/29 09:06:08;;;;;;;8.40;6.00;;;;;;;17.12;48.67;101302.34;5016103;28;21124;-71
2022/04/29 09:08:42;;;;;;;7.83;5.90;;;;;;;17.25;48.30;101301.06;5013795;28;20409;-71
2022/04/29 09:11:09;;;;;;;7.13;5.33;;;;;;;17.44;48.15;101304.13;5013583;28;20400;-71
2022/04/29 09:13:38;;;;;;;5.25;4.65;;;;;;;17.56;47.90;101302.81;5014084;28;20381;-71
2022/04/29 09:16:10;;;;;;;7.30;5.50;;;;;;;17.65;48.04;101307.78;5017940;28;20401;-70
2022/04/29 09:18:37;;;;;;;6.95;4.47;;;;;;;17.70;48.05;101305.03;5014001;28;20417;-70
2022/04/29 09:21:07;;;;;;;6.38;5.78;;;;;;;17.68;47.03;101296.28;5013745;28;20400;-71
2022/04/29 09:23:32;;;;;;;7.72;5.53;;;;;;;17.58;46.69;101292.38;5009023;28;20897;-71
2022/04/29 09:26:01;;;;;;;7.97;5.43;;;;;;;17.53;46.57;101288.78;5013364;28;20405;-71
2022/04/29 09:28:27;;;;;;;7.05;5.40;;;;;;;17.49;45.95;101290.44;5013486;28;20761;-71
2022/04/29 09:30:56;;;;;;;6.80;5.22;;;;;;;17.51;46.47;101291.00;5012619;28;20412;-71
2022/04/29 09:33:24;;;;;;;7.88;5.60;;;;;;;17.61;46.81;101289.13;5013379;28;20749;-71
2022/04/29 09:35:50;;;;;;;5.68;4.93;;;;;;;17.67;46.92;101287.22;5013418;28;20400;-71
2022/04/29 09:41:00;;;;;;;6.60;5.07;;;;;;;17.67;45.83;101275.44;5014224;28;20431;-70
2022/04/29 09:43:40;;;;;;;9.95;4.90;;;;;;;17.77;46.33;101280.94;5013537;28;20868;-71
2022/04/29 09:46:13;;;;;;;7.00;5.22;;;;;;;17.81;45.67;101274.63;5012674;28;20420;-70
2022/04/29 09:48:51;;;;;;;8.70;5.13;;;;;;;17.98;45.95;101260.66;5015087;28;20397;-71
2022/04/29 09:51:52;;;;;;;5.60;5.10;;;;;;;18.14;45.11;101260.34;5012790;28;20403;-71
2022/04/29 09:54:27;;;;;;;5.53;5.03;;;;;;;18.32;44.77;101258.13;5012815;28;20393;-70
2022/04/29 09:57:03;;;;;;;5.40;4.53;;;;;;;18.49;44.99;101262.22;5012638;28;20415;-71
2022/04/29 09:59:33;;;;;;;5.88;4.82;;;;;;;18.58;44.75;101265.25;5012621;28;20409;-70
2022/04/29 10:02:00;;;;;;;5.38;4.88;;;;;;;18.69;43.92;101255.06;5012758;28;20392;-70
2022/04/29 10:04:25;;;;;;;5.38;4.88;;;;;;;18.85;43.82;101254.75;5012454;28;20717;-71
2022/04/29 10:06:51;;;;;;;5.33;4.77;;;;;;;19.10;43.17;101251.88;5017971;28;20410;-71
2022/04/29 10:09:18;;;;;;;6.72;4.95;;;;;;;19.28;44.00;101250.41;5012738;28;20428;-71
2022/04/29 10:11:44;;;;;;;5.40;4.22;;;;;;;19.36;43.93;101243.50;5021938;28;20466;-71
2022/04/29 10:14:14;;;;;;;4.97;4.43;;;;;;;19.43;42.36;101238.56;5017410;28;20480;-70
2022/04/29 10:21:15;;;;;;;8.30;4.57;;;;;;;19.73;42.06;101243.00;5012443;28;20436;-71
2022/04/29 10:22:23;;;;;;;7.65;5.20;;;;;;;20.37;40.69;101235.31;5012836;28;20400;-71
2022/04/29 10:24:49;;;;;;;5.35;4.72;;;;;;;20.47;39.84;101240.72;5011564;28;20417;-71
2022/04/29 10:27:15;;;;;;;7.07;4.33;;;;;;;20.56;40.16;101241.69;5010149;28;20435;-71
2022/04/29 10:29:41;;;;;;;5.18;4.68;;;;;;;20.91;39.86;101243.19;5016336;28;20496;-71
2022/04/29 10:32:09;;;;;;;4.82;4.43;;;;;;;21.19;39.87;101241.50;5023333;28;20411;-71
2022/04/29 10:34:35;;;;;;;5.35;4.85;;;;;;;21.36;39.02;101239.06;5014592;28;20420;-71
2022/04/29 10:37:01;;;;;;;7.10;4.70;;;;;;;21.56;38.22;101243.47;4995339;28;20416;-70
2022/04/29 10:39:26;;;;;;;5.05;4.57;;;;;;;21.66;38.16;101243.31;4994773;28;20411;-71
2022/04/29 10:42:03;;;;;;;5.73;4.47;;;;;;;22.22;37.99;101235.75;5012537;28;20752;-71
2022/04/29 10:44:31;;;;;;;6.72;4.30;;;;;;;23.26;37.22;101237.81;5011958;28;20400;-71
2022/04/29 10:47:16;;;;;;;5.97;4.28;;;;;;;23.99;35.44;101243.00;5011448;28;20412;-71
2022/04/29 10:49:41;;;;;;;6.75;4.95;;;;;;;23.90;33.85;101228.31;5011344;28;20484;-71
2022/04/29 10:52:23;;;;;;;5.57;4.47;;;;;;;23.54;34.57;101222.81;5011561;28;20485;-71
2022/04/29 10:54:56;;;;;;;4.33;4.03;;;;;;;24.08;32.76;101230.03;5017165;28;20886;-71
2022/04/29 10:57:41;;;;;;;6.35;4.60;;;;;;;24.93;32.80;101226.06;5021893;28;20435;-72
2022/04/29 11:00:13;;;;;;;4.95;4.00;;;;;;;25.63;31.38;101217.53;5012202;28;20443;-71
2022/04/29 11:02:39;;;;;;;3.83;2.80;;;;;;;25.70;28.30;101219.81;5011895;28;20389;-71
2022/04/29 11:05:05;;;;;;;2.97;2.43;;;;;;;25.71;27.72;101216.72;5010602;28;20423;-71
2022/04/29 11:07:45;;;;;;;7.07;2.67;;;;;;;26.05;26.47;101215.81;5019063;28;20404;-71
2022/04/29 11:10:22;;;;;;;4.45;2.28;;;;;;;25.70;26.18;101206.75;5011345;28;20404;-71
2022/04/29 11:12:58;;;;;;;2.63;2.42;;;;;;;24.41;25.30;101210.34;5005409;28;20955;-71
2022/04/29 11:15:39;;;;;;;4.63;3.03;;;;;;;23.58;27.04;101201.69;4999857;28;20755;-72
2022/04/29 11:18:14;;;;;;;4.68;2.72;;;;;;;22.99;28.47;101199.16;5012059;28;20443;-72
2022/04/29 11:20:42;;;;;;;2.45;2.30;;;;;;;22.79;28.85;101194.88;5018772;28;20449;-71
2022/04/29 11:26:00;;;;;;;4.00;2.40;;;;;;;22.53;27.94;101196.50;5007720;28;20414;-71
2022/04/29 11:28:26;;;;;;;2.67;2.47;;;;;;;22.65;28.94;101185.78;5012012;28;20460;-71
2022/04/29 11:31:00;;;;;;;3.50;3.20;;;;;;;22.83;28.73;101186.78;5019466;28;20421;-71
2022/04/29 11:33:26;;;;;;;4.72;3.85;;;;;;;22.96;28.75;101185.94;5014743;28;20408;-71
2022/04/29 11:36:03;;;;;;;3.00;2.80;;;;;;;23.25;28.74;101178.09;5005548;28;20408;-71
2022/04/29 11:38:31;;;;;;;4.23;3.03;;;;;;;23.31;28.60;101184.34;5018158;28;21135;-71
2022/04/29 11:41:01;;;;;;;3.05;2.85;;;;;;;23.09;28.54;101172.09;5014458;28;20464;-70
2022/04/29 11:43:27;;;;;;;3.10;2.90;;;;;;;23.13;29.21;101175.06;5021871;28;20414;-71
2022/04/29 11:46:01;;;;;;;4.90;3.22;;;;;;;23.18;29.22;101166.66;5018008;28;20405;-71
2022/04/29 11:48:26;;;;;;;3.38;3.08;;;;;;;23.13;28.75;101161.25;5015387;28;20413;-71
2022/04/29 11:50:51;;;;;;;5.63;3.70;;;;;;;23.47;27.97;101164.34;5012007;28;20412;-71